RJSU(METAR)
08/13 15:00
METAR RJSU 130600Z 14006KT 9999 FEW030 SCT060 BKN230 32/24 Q1007 RMK
1CU030 3CU060 5CI230 A2974=
戻る
トップページへ戻る
IMOC Co,.Ltd.